Time;durP1;ratioP1;P1;durP2;ratioP2;P2;SDS_P1;SDS_P2;PMS_P1;PMS_P2;Temp;Humidity;BMP_temperature;BMP_pressure;BME280_temperature;BME280_humidity;BME280_pressure;Samples;Min_cycle;Max_cycle;Signal;HPM_P1;HPM_P2
2021/12/13 00:00:20;;;;;;;6.70;5.03;;;;;16.80;102254.00;;;;5027706;28;20200;-81
2021/12/13 00:02:55;;;;;;;9.05;5.28;;;;;16.70;102256.00;;;;5027501;28;20201;-81
2021/12/13 00:05:28;;;;;;;7.05;4.38;;;;;16.70;102262.00;;;;5027220;28;20204;-82
2021/12/13 00:07:59;;;;;;;7.65;5.35;;;;;16.70;102258.00;;;;5026841;28;20204;-81
2021/12/13 00:10:37;;;;;;;5.72;4.47;;;;;16.70;102262.00;;;;5027491;28;20192;-81
2021/12/13 00:13:11;;;;;;;4.95;4.45;;;;;16.70;102267.00;;;;5027177;28;20297;-81
2021/12/13 00:15:46;;;;;;;7.10;4.63;;;;;16.70;102258.00;;;;5027546;28;20200;-81
2021/12/13 00:18:19;;;;;;;5.90;4.82;;;;;16.70;102267.00;;;;5015858;28;20196;-81
2021/12/13 00:20:53;;;;;;;4.88;4.20;;;;;16.70;102267.00;;;;5028165;28;20204;-81
2021/12/13 00:23:25;;;;;;;5.55;4.07;;;;;16.70;102264.00;;;;5011258;28;20204;-82
2021/12/13 00:25:58;;;;;;;7.70;4.70;;;;;16.70;102264.00;;;;5027306;28;20259;-81
2021/12/13 00:28:28;;;;;;;6.68;4.40;;;;;16.70;102268.00;;;;5029178;28;20208;-82
2021/12/13 00:31:07;;;;;;;4.38;3.58;;;;;16.70;102270.00;;;;5028095;28;20668;-82
2021/12/13 00:33:43;;;;;;;6.85;4.40;;;;;16.70;102268.00;;;;5021656;28;20199;-81
2021/12/13 00:36:17;;;;;;;6.47;4.03;;;;;16.70;102273.00;;;;5030786;28;20203;-81
2021/12/13 00:38:48;;;;;;;6.03;4.68;;;;;16.60;102279.00;;;;5024404;28;20195;-81
2021/12/13 00:41:21;;;;;;;5.55;4.32;;;;;16.60;102277.00;;;;5010820;28;20689;-82
2021/12/13 00:43:53;;;;;;;5.53;4.35;;;;;16.60;102287.00;;;;5023610;28;20246;-82
2021/12/13 00:46:25;;;;;;;5.80;4.32;;;;;16.60;102282.00;;;;5030139;28;20682;-81
2021/12/13 00:48:55;;;;;;;5.50;4.28;;;;;16.60;102288.00;;;;5029325;28;20239;-81
2021/12/13 00:51:26;;;;;;;5.38;3.83;;;;;16.60;102281.00;;;;5030178;28;20690;-81
2021/12/13 00:53:56;;;;;;;6.97;4.22;;;;;16.60;102280.00;;;;5027080;28;20199;-81
2021/12/13 00:56:46;;;;;;;5.00;4.25;;;;;16.50;102281.00;;;;5020677;28;20231;-81
2021/12/13 00:59:23;;;;;;;5.93;4.45;;;;;16.50;102286.00;;;;5029458;28;20219;-81
2021/12/13 01:01:54;;;;;;;4.75;3.92;;;;;16.50;102284.00;;;;5029600;28;20203;-81
2021/12/13 01:04:23;;;;;;;4.78;3.95;;;;;16.50;102288.00;;;;5029936;28;20205;-81
2021/12/13 01:07:35;;;;;;;4.68;3.47;;;;;16.40;102292.00;;;;5030581;28;20671;-81
2021/12/13 01:10:45;;;;;;;6.20;3.40;;;;;16.40;102286.00;;;;5027529;28;20195;-81
2021/12/13 01:13:18;;;;;;;4.40;2.97;;;;;16.40;102289.00;;;;5013983;28;20232;-81
2021/12/13 01:15:51;;;;;;;4.40;2.97;;;;;16.40;102286.00;;;;5011913;28;20224;-81
2021/12/13 01:18:29;;;;;;;5.35;3.17;;;;;16.40;102293.00;;;;5030259;28;20196;-81
2021/12/13 01:21:03;;;;;;;3.95;2.83;;;;;16.40;102294.00;;;;5016397;28;20208;-80
2021/12/13 01:23:43;;;;;;;3.42;2.88;;;;;16.40;102298.00;;;;5029806;28;20215;-81
2021/12/13 01:26:28;;;;;;;3.13;2.10;;;;;16.40;102299.00;;;;5015254;28;20244;-81
2021/12/13 01:29:00;;;;;;;2.75;2.33;;;;;16.40;102299.00;;;;5029691;28;20200;-81
2021/12/13 01:31:30;;;;;;;4.97;1.75;;;;;16.40;102310.00;;;;5028956;28;20220;-81
2021/12/13 01:34:00;;;;;;;3.40;1.88;;;;;16.40;102303.00;;;;5029883;28;20216;-81
2021/12/13 01:36:32;;;;;;;2.22;1.80;;;;;16.40;102306.00;;;;5029825;28;20220;-81
2021/12/13 01:39:05;;;;;;;2.13;1.67;;;;;16.40;102311.00;;;;5029109;28;20192;-81
2021/12/13 01:41:37;;;;;;;3.60;1.90;;;;;16.40;102309.00;;;;5028832;28;20204;-81
2021/12/13 01:44:09;;;;;;;2.47;1.85;;;;;16.40;102314.00;;;;5030280;28;20212;-81
2021/12/13 01:46:38;;;;;;;2.00;1.65;;;;;16.50;102315.00;;;;5025762;28;20201;-81
2021/12/13 01:49:07;;;;;;;4.07;2.70;;;;;16.50;102321.00;;;;5014156;28;20197;-81
2021/12/13 01:51:36;;;;;;;3.45;1.92;;;;;16.40;102312.00;;;;5028281;28;20227;-81
2021/12/13 01:54:10;;;;;;;3.55;2.28;;;;;16.40;102317.00;;;;5030222;28;20195;-81
2021/12/13 01:56:46;;;;;;;2.53;2.15;;;;;16.40;102317.00;;;;5029633;28;20231;-81
2021/12/13 01:59:48;;;;;;;2.65;2.42;;;;;16.40;102317.00;;;;5029520;28;20200;-81
2021/12/13 02:02:27;;;;;;;3.25;2.40;;;;;16.40;102312.00;;;;5021894;28;20210;-81
2021/12/13 02:05:02;;;;;;;5.53;2.80;;;;;16.40;102317.00;;;;5015614;28;20205;-81
2021/12/13 02:07:38;;;;;;;3.58;2.67;;;;;16.40;102320.00;;;;5028807;28;20204;-81
2021/12/13 02:10:10;;;;;;;3.60;2.75;;;;;16.40;102311.00;;;;5028364;28;20196;-81
2021/12/13 02:12:42;;;;;;;4.03;2.83;;;;;16.40;102313.00;;;;5028065;28;20235;-81
2021/12/13 02:17:58;;;;;;;4.32;2.95;;;;;16.40;102307.00;;;;5028398;28;20206;-81
2021/12/13 02:20:32;;;;;;;4.30;3.08;;;;;16.30;102312.00;;;;5026361;28;20662;-81
2021/12/13 02:23:01;;;;;;;5.30;3.25;;;;;16.30;102310.00;;;;5028553;28;20208;-81
2021/12/13 02:25:32;;;;;;;6.30;3.78;;;;;16.30;102305.00;;;;5029447;28;20224;-80
2021/12/13 02:28:04;;;;;;;4.88;3.60;;;;;16.30;102307.00;;;;5028849;28;20204;-81
2021/12/13 02:30:37;;;;;;;5.70;3.72;;;;;16.30;102322.00;;;;5028435;28;20215;-81
2021/12/13 02:33:07;;;;;;;5.68;3.55;;;;;16.30;102320.00;;;;5028670;28;20229;-81
2021/12/13 02:35:38;;;;;;;6.28;4.55;;;;;16.30;102313.00;;;;5028085;28;20204;-82
2021/12/13 02:38:12;;;;;;;6.03;4.90;;;;;16.30;102321.00;;;;5023377;28;20211;-81
2021/12/13 02:40:39;;;;;;;7.78;4.18;;;;;16.30;102321.00;;;;5027682;28;20196;-81
2021/12/13 02:43:10;;;;;;;6.35;4.57;;;;;16.30;102323.00;;;;5029173;28;20208;-81
2021/12/13 02:45:43;;;;;;;8.45;5.22;;;;;16.30;102318.00;;;;5028864;28;20220;-81
2021/12/13 02:48:15;;;;;;;7.30;5.15;;;;;16.30;102311.00;;;;5014634;28;20621;-81
2021/12/13 02:50:50;;;;;;;7.38;4.85;;;;;16.30;102309.00;;;;5027650;28;20204;-81
2021/12/13 02:53:23;;;;;;;9.10;5.95;;;;;16.30;102312.00;;;;5028527;28;20231;-80
2021/12/13 02:55:51;;;;;;;7.30;5.40;;;;;16.30;102324.00;;;;5027531;28;20224;-81
2021/12/13 02:58:21;;;;;;;7.55;5.85;;;;;16.30;102313.00;;;;5028629;28;20204;-81
2021/12/13 03:00:52;;;;;;;7.50;5.82;;;;;16.30;102323.00;;;;5027829;28;20196;-80
2021/12/13 03:03:31;;;;;;;7.32;6.00;;;;;16.30;102314.00;;;;5027893;28;20212;-80
2021/12/13 03:06:03;;;;;;;8.27;6.22;;;;;16.30;102303.00;;;;5027590;28;20202;-81
2021/12/13 03:08:35;;;;;;;11.05;6.60;;;;;16.30;102307.00;;;;5027463;28;20188;-81
2021/12/13 03:11:08;;;;;;;7.50;5.95;;;;;16.30;102306.00;;;;5028059;28;20193;-81
2021/12/13 03:13:35;;;;;;;8.70;6.47;;;;;16.30;102304.00;;;;5018927;28;20230;-81
2021/12/13 03:16:11;;;;;;;8.15;6.63;;;;;16.30;102313.00;;;;5027050;28;20212;-80
2021/12/13 03:18:47;;;;;;;7.53;6.00;;;;;16.30;102315.00;;;;5027730;28;20737;-80
2021/12/13 03:21:44;;;;;;;11.23;6.75;;;;;16.20;102312.00;;;;5027481;28;20215;-81
2021/12/13 03:24:46;;;;;;;7.63;5.38;;;;;16.20;102312.00;;;;5018276;28;20267;-81
2021/12/13 03:27:30;;;;;;;6.65;5.43;;;;;16.30;102306.00;;;;5023994;28;20195;-81
2021/12/13 03:30:01;;;;;;;7.80;6.20;;;;;16.30;102313.00;;;;5024315;28;20204;-81
2021/12/13 03:32:36;;;;;;;8.07;6.80;;;;;16.30;102311.00;;;;5028062;28;20247;-81
2021/12/13 03:35:12;;;;;;;8.55;5.38;;;;;16.30;102316.00;;;;5008329;28;20200;-81
2021/12/13 03:37:42;;;;;;;8.20;6.10;;;;;16.30;102313.00;;;;5025691;28;20199;-81
2021/12/13 03:40:14;;;;;;;6.63;5.47;;;;;16.20;102309.00;;;;5028312;28;20208;-80
2021/12/13 03:42:45;;;;;;;6.43;5.18;;;;;16.20;102312.00;;;;5027821;28;20223;-81
2021/12/13 03:45:17;;;;;;;9.77;6.38;;;;;16.20;102314.00;;;;5027154;28;20760;-81
2021/12/13 03:47:50;;;;;;;6.35;5.63;;;;;16.20;102317.00;;;;5027703;28;20701;-81
2021/12/13 03:50:21;;;;;;;8.80;5.72;;;;;16.20;102322.00;;;;5028797;28;20197;-81
2021/12/13 03:52:51;;;;;;;5.68;4.70;;;;;16.20;102312.00;;;;5027781;28;20246;-81
2021/12/13 03:55:24;;;;;;;6.20;5.15;;;;;16.20;102318.00;;;;5027729;28;20227;-81
2021/12/13 03:57:53;;;;;;;8.98;4.85;;;;;16.20;102320.00;;;;5027477;28;20196;-81
2021/12/13 04:00:25;;;;;;;7.35;5.28;;;;;16.20;102315.00;;;;5027749;28;20197;-81
2021/12/13 04:02:55;;;;;;;7.47;5.43;;;;;16.20;102304.00;;;;5025565;28;20209;-81
2021/12/13 04:05:24;;;;;;;7.25;5.15;;;;;16.20;102305.00;;;;5012214;28;20201;-80
2021/12/13 04:07:54;;;;;;;6.60;5.20;;;;;16.20;102313.00;;;;5027325;28;20200;-81
2021/12/13 04:10:25;;;;;;;4.78;4.18;;;;;16.20;102306.00;;;;5031421;28;20304;-81
2021/12/13 04:12:56;;;;;;;6.05;4.80;;;;;16.20;102309.00;;;;5031482;28;20220;-81
2021/12/13 04:15:31;;;;;;;6.28;5.03;;;;;16.20;102314.00;;;;5031022;28;20662;-81
2021/12/13 04:18:11;;;;;;;5.85;4.72;;;;;16.20;102315.00;;;;5030920;28;20212;-81
2021/12/13 04:20:40;;;;;;;5.72;4.55;;;;;16.20;102303.00;;;;5021600;28;20569;-80
2021/12/13 04:23:10;;;;;;;4.93;3.95;;;;;16.10;102300.00;;;;5030901;28;20200;-81
2021/12/13 04:25:44;;;;;;;5.75;4.80;;;;;16.10;102293.00;;;;5030888;28;20271;-81
2021/12/13 04:28:14;;;;;;;6.68;4.70;;;;;16.10;102298.00;;;;5030720;28;20207;-81
2021/12/13 04:30:44;;;;;;;5.90;4.78;;;;;16.10;102303.00;;;;5030729;28;20216;-80
2021/12/13 04:33:28;;;;;;;6.05;4.93;;;;;16.00;102298.00;;;;5029994;28;20231;-81
2021/12/13 04:35:58;;;;;;;7.72;4.72;;;;;16.10;102302.00;;;;5020373;28;20655;-81
2021/12/13 04:38:32;;;;;;;5.72;4.90;;;;;16.10;102309.00;;;;5019502;28;20282;-80
2021/12/13 04:41:01;;;;;;;7.03;4.75;;;;;16.10;102309.00;;;;5030584;28;20211;-80
2021/12/13 04:43:29;;;;;;;5.78;4.72;;;;;16.10;102303.00;;;;5029391;28;20200;-80
2021/12/13 04:46:00;;;;;;;5.80;4.60;;;;;16.10;102300.00;;;;5030300;28;20223;-81
2021/12/13 04:48:30;;;;;;;6.15;4.78;;;;;16.10;102317.00;;;;5029603;28;20199;-80
2021/12/13 04:51:04;;;;;;;6.40;4.93;;;;;16.10;102319.00;;;;5029021;28;20196;-80
2021/12/13 04:53:34;;;;;;;6.25;5.03;;;;;16.10;102308.00;;;;5028531;28;20231;-81
2021/12/13 04:56:07;;;;;;;6.20;5.05;;;;;16.00;102314.00;;;;5029978;28;20226;-80
2021/12/13 04:58:35;;;;;;;7.07;5.00;;;;;16.10;102311.00;;;;5029488;28;20200;-80
2021/12/13 05:01:06;;;;;;;7.20;5.85;;;;;16.10;102312.00;;;;5030003;28;20243;-80
2021/12/13 05:03:37;;;;;;;5.75;5.20;;;;;16.00;102317.00;;;;5030111;28;20204;-81
2021/12/13 05:06:07;;;;;;;6.93;5.70;;;;;16.00;102315.00;;;;5029894;28;20208;-80
2021/12/13 05:08:35;;;;;;;6.45;5.03;;;;;16.00;102314.00;;;;5028781;28;20204;-80
2021/12/13 05:11:07;;;;;;;7.65;5.65;;;;;16.00;102325.00;;;;5022188;28;20204;-80
2021/12/13 05:13:39;;;;;;;7.30;5.40;;;;;16.00;102320.00;;;;5011425;28;20236;-81
2021/12/13 05:16:10;;;;;;;6.65;5.47;;;;;16.00;102315.00;;;;5029845;28;20205;-80
2021/12/13 05:18:41;;;;;;;6.38;4.63;;;;;16.00;102318.00;;;;5029341;28;20207;-80
2021/12/13 05:21:12;;;;;;;7.82;5.63;;;;;16.00;102319.00;;;;5029990;28;20196;-81
2021/12/13 05:23:47;;;;;;;8.02;5.80;;;;;16.00;102325.00;;;;5029406;28;20331;-81
2021/12/13 05:26:30;;;;;;;7.63;5.13;;;;;15.90;102319.00;;;;5030122;28;20200;-80
2021/12/13 05:29:00;;;;;;;6.75;5.38;;;;;16.00;102312.00;;;;5027045;28;20200;-80
2021/12/13 05:31:29;;;;;;;6.93;5.85;;;;;16.00;102311.00;;;;5030252;28;20210;-81
2021/12/13 05:34:00;;;;;;;7.97;5.72;;;;;15.90;102322.00;;;;5029831;28;20702;-81
2021/12/13 05:36:30;;;;;;;7.35;5.97;;;;;15.90;102329.00;;;;5029439;28;20577;-80
2021/12/13 05:39:09;;;;;;;10.38;6.35;;;;;15.90;102318.00;;;;5028887;28;20769;-81
2021/12/13 05:41:38;;;;;;;7.28;5.35;;;;;15.90;102320.00;;;;5030006;28;20199;-81
2021/12/13 05:44:08;;;;;;;7.03;5.68;;;;;15.90;102326.00;;;;5029252;28;20271;-81
2021/12/13 05:46:40;;;;;;;7.82;6.03;;;;;15.90;102321.00;;;;5018045;28;20207;-81
2021/12/13 05:49:11;;;;;;;8.95;6.05;;;;;15.90;102323.00;;;;5028722;28;20208;-81
2021/12/13 05:51:41;;;;;;;9.95;6.13;;;;;15.90;102327.00;;;;5028947;28;20467;-80
2021/12/13 05:54:11;;;;;;;10.52;6.30;;;;;15.90;102324.00;;;;5028479;28;20223;-80
2021/12/13 05:56:44;;;;;;;10.02;6.53;;;;;15.90;102329.00;;;;5028700;28;20235;-80
2021/12/13 05:59:16;;;;;;;7.78;5.90;;;;;15.90;102331.00;;;;5028731;28;20223;-81
2021/12/13 06:02:04;;;;;;;8.65;6.47;;;;;15.80;102333.00;;;;5027076;28;20196;-80
2021/12/13 06:04:39;;;;;;;7.90;5.20;;;;;15.90;102333.00;;;;5009500;28;20212;-81
2021/12/13 06:07:18;;;;;;;9.23;6.63;;;;;15.80;102327.00;;;;5022462;28;20200;-81
2021/12/13 06:09:57;;;;;;;9.40;6.22;;;;;15.90;102329.00;;;;5027693;28;20196;-81
2021/12/13 06:12:37;;;;;;;8.88;6.25;;;;;15.80;102332.00;;;;5027809;28;20251;-81
2021/12/13 06:15:24;;;;;;;8.60;6.35;;;;;15.80;102341.00;;;;5028214;28;20207;-81
2021/12/13 06:18:00;;;;;;;8.10;5.82;;;;;15.90;102338.00;;;;5028500;28;20192;-81
2021/12/13 06:20:30;;;;;;;11.05;7.03;;;;;15.90;102340.00;;;;5020808;28;20572;-81
2021/12/13 06:23:11;;;;;;;10.50;6.55;;;;;15.80;102349.00;;;;5028680;28;20205;-81
2021/12/13 06:25:40;;;;;;;8.90;6.28;;;;;15.90;102348.00;;;;5025818;28;20203;-81
2021/12/13 06:28:19;;;;;;;8.77;6.35;;;;;15.80;102341.00;;;;5028212;28;20193;-81
2021/12/13 06:30:54;;;;;;;9.43;5.88;;;;;15.80;102345.00;;;;5027893;28;20196;-81
2021/12/13 06:33:22;;;;;;;9.57;7.05;;;;;15.90;102343.00;;;;5027174;28;20685;-81
2021/12/13 06:35:51;;;;;;;9.18;6.55;;;;;15.90;102340.00;;;;5024890;28;20985;-81
2021/12/13 06:38:43;;;;;;;10.80;7.07;;;;;15.80;102340.00;;;;5026928;28;20690;-81
2021/12/13 06:41:18;;;;;;;9.50;5.65;;;;;15.80;102349.00;;;;5021419;28;20197;-81
2021/12/13 06:43:49;;;;;;;9.82;6.63;;;;;15.80;102341.00;;;;5027617;28;20195;-80
2021/12/13 06:46:35;;;;;;;9.27;6.65;;;;;15.80;102350.00;;;;5029054;28;20214;-81
2021/12/13 06:49:15;;;;;;;10.15;6.68;;;;;15.80;102350.00;;;;5022654;28;20287;-79
2021/12/13 06:51:47;;;;;;;9.75;6.28;;;;;15.90;102354.00;;;;5027124;28;20204;-81
2021/12/13 06:54:18;;;;;;;9.63;7.40;;;;;15.90;102357.00;;;;5019980;28;20231;-81
2021/12/13 06:56:51;;;;;;;10.10;6.90;;;;;15.90;102358.00;;;;5024452;28;20240;-80
2021/12/13 06:59:20;;;;;;;9.48;6.43;;;;;15.90;102366.00;;;;5024088;28;20200;-80
2021/12/13 07:02:00;;;;;;;9.32;5.88;;;;;15.80;102357.00;;;;5028576;28;20196;-80
2021/12/13 07:04:27;;;;;;;9.20;6.10;;;;;15.90;102363.00;;;;5026173;28;20204;-81
2021/12/13 07:07:10;;;;;;;11.80;6.82;;;;;15.80;102361.00;;;;5027042;28;20196;-81
2021/12/13 07:09:39;;;;;;;9.77;6.25;;;;;15.90;102357.00;;;;5023743;28;20225;-80
2021/12/13 07:12:15;;;;;;;9.10;7.05;;;;;15.80;102355.00;;;;5026829;28;20283;-80
2021/12/13 07:14:44;;;;;;;9.13;6.60;;;;;15.90;102360.00;;;;5028151;28;20319;-80
2021/12/13 07:17:15;;;;;;;8.63;6.05;;;;;15.90;102366.00;;;;5027851;28;20394;-79
2021/12/13 07:19:45;;;;;;;8.82;6.18;;;;;15.90;102358.00;;;;5027835;28;20192;-79
2021/12/13 07:22:18;;;;;;;8.90;6.20;;;;;15.90;102366.00;;;;5027934;28;20196;-79
2021/12/13 07:24:50;;;;;;;9.88;6.57;;;;;15.90;102373.00;;;;5028360;28;20208;-80
2021/12/13 07:27:21;;;;;;;9.95;6.47;;;;;15.90;102374.00;;;;5018835;28;20216;-79
2021/12/13 07:29:52;;;;;;;9.50;6.25;;;;;15.90;102369.00;;;;5026692;28;20580;-79
2021/12/13 07:32:22;;;;;;;8.93;5.85;;;;;15.90;102370.00;;;;5027304;28;20201;-79
2021/12/13 07:34:57;;;;;;;7.93;5.82;;;;;15.90;102370.00;;;;5026351;28;20220;-79
2021/12/13 07:37:47;;;;;;;10.50;5.95;;;;;15.90;102378.00;;;;5027469;28;20215;-79
2021/12/13 07:40:35;;;;;;;8.95;6.10;;;;;15.90;102383.00;;;;5030833;28;20192;-79
2021/12/13 07:43:14;;;;;;;10.52;6.28;;;;;15.90;102387.00;;;;5025569;28;20199;-80
2021/12/13 07:45:49;;;;;;;7.47;5.32;;;;;15.90;102394.00;;;;5030363;28;20216;-79
2021/12/13 07:48:19;;;;;;;11.98;7.53;;;;;16.00;102391.00;;;;5032309;28;20199;-79
2021/12/13 07:50:56;;;;;;;10.52;6.70;;;;;16.00;102394.00;;;;5031256;28;20211;-79
2021/12/13 07:53:27;;;;;;;10.30;6.85;;;;;15.90;102396.00;;;;5031006;28;20837;-81
2021/12/13 07:55:55;;;;;;;12.02;6.63;;;;;16.00;102395.00;;;;5030172;28;20228;-81
2021/12/13 07:58:35;;;;;;;11.68;7.30;;;;;15.90;102397.00;;;;5032242;28;20201;-82
2021/12/13 08:01:14;;;;;;;8.85;6.20;;;;;15.90;102394.00;;;;5031203;28;20553;-82
2021/12/13 08:03:48;;;;;;;8.90;5.95;;;;;15.90;102401.00;;;;5029092;28;20208;-79
2021/12/13 08:06:16;;;;;;;10.85;6.53;;;;;16.00;102407.00;;;;5031826;28;20208;-80
2021/12/13 08:08:50;;;;;;;11.65;6.50;;;;;15.90;102403.00;;;;5029892;28;20670;-80
2021/12/13 08:11:19;;;;;;;10.40;6.55;;;;;16.00;102416.00;;;;5026569;28;20199;-80
2021/12/13 08:13:57;;;;;;;10.93;6.78;;;;;15.90;102409.00;;;;5028827;28;20271;-81
2021/12/13 08:16:33;;;;;;;10.70;7.28;;;;;15.90;102408.00;;;;5024090;28;20207;-82
2021/12/13 08:19:14;;;;;;;12.02;7.22;;;;;15.90;102399.00;;;;5021906;28;20200;-82
2021/12/13 08:21:45;;;;;;;12.18;6.43;;;;;16.00;102408.00;;;;5030132;28;20200;-82
2021/12/13 08:24:27;;;;;;;9.30;6.53;;;;;15.90;102402.00;;;;5030593;28;20205;-83
2021/12/13 08:26:58;;;;;;;11.65;7.65;;;;;16.00;102410.00;;;;5030883;28;20204;-81
2021/12/13 08:29:31;;;;;;;10.48;7.10;;;;;15.90;102401.00;;;;5030752;28;20659;-81
2021/12/13 08:32:02;;;;;;;8.52;6.43;;;;;15.90;102397.00;;;;5029164;28;20658;-81
2021/12/13 08:34:33;;;;;;;9.77;6.47;;;;;15.90;102401.00;;;;5027121;28;20229;-81
2021/12/13 08:37:10;;;;;;;9.43;6.32;;;;;16.00;102395.00;;;;5029501;28;20239;-81
2021/12/13 08:39:38;;;;;;;12.23;7.25;;;;;16.00;102390.00;;;;5030880;28;20200;-81
2021/12/13 08:42:09;;;;;;;10.73;7.40;;;;;15.90;102394.00;;;;5031002;28;20555;-80
2021/12/13 08:44:40;;;;;;;11.48;7.00;;;;;16.00;102402.00;;;;5030232;28;20708;-79
2021/12/13 08:47:13;;;;;;;9.85;6.40;;;;;15.90;102397.00;;;;5029374;28;20208;-80
2021/12/13 08:49:44;;;;;;;9.18;5.93;;;;;16.00;102400.00;;;;5030150;28;20207;-79
2021/12/13 08:52:21;;;;;;;9.52;6.47;;;;;15.90;102401.00;;;;5023958;28;20196;-80
2021/12/13 08:54:55;;;;;;;10.35;6.50;;;;;16.00;102406.00;;;;5030386;28;20224;-80
2021/12/13 08:57:46;;;;;;;10.68;6.70;;;;;15.90;102410.00;;;;5030021;28;20229;-79
2021/12/13 09:00:27;;;;;;;8.90;6.18;;;;;15.90;102411.00;;;;5020820;28;20200;-79
2021/12/13 09:03:01;;;;;;;7.85;5.78;;;;;16.00;102417.00;;;;5029633;28;20200;-79
2021/12/13 09:05:32;;;;;;;9.20;5.75;;;;;16.00;102430.00;;;;5030066;28;20686;-80
2021/12/13 09:08:04;;;;;;;9.43;6.30;;;;;16.00;102421.00;;;;5029956;28;20208;-80
2021/12/13 09:10:48;;;;;;;11.10;6.55;;;;;15.90;102426.00;;;;5021973;28;20207;-80
2021/12/13 09:13:17;;;;;;;8.55;5.72;;;;;16.00;102426.00;;;;5029411;28;20203;-80
2021/12/13 09:15:47;;;;;;;10.40;5.93;;;;;16.00;102439.00;;;;5029883;28;20217;-79
2021/12/13 09:18:21;;;;;;;8.70;6.00;;;;;16.00;102432.00;;;;5029378;28;20200;-80
2021/12/13 09:20:53;;;;;;;9.98;6.32;;;;;16.00;102447.00;;;;5029677;28;20607;-80
2021/12/13 09:23:23;;;;;;;10.40;6.53;;;;;16.00;102458.00;;;;5028916;28;20698;-79
2021/12/13 09:25:54;;;;;;;9.95;6.07;;;;;16.00;102454.00;;;;5023884;28;20208;-79
2021/12/13 09:28:25;;;;;;;8.55;5.65;;;;;16.10;102455.00;;;;5029228;28;20192;-79
2021/12/13 09:30:57;;;;;;;8.43;5.72;;;;;16.10;102458.00;;;;5027965;28;20210;-79
2021/12/13 09:33:30;;;;;;;9.10;5.47;;;;;16.10;102462.00;;;;5025927;28;20222;-80
2021/12/13 09:35:59;;;;;;;10.50;5.80;;;;;16.10;102478.00;;;;5026475;28;21046;-79
2021/12/13 09:38:39;;;;;;;8.95;5.60;;;;;16.10;102482.00;;;;5027035;28;20192;-79
2021/12/13 09:41:17;;;;;;;9.52;5.40;;;;;16.10;102487.00;;;;5026385;28;20200;-78
2021/12/13 09:43:51;;;;;;;9.43;5.97;;;;;16.10;102485.00;;;;5018512;28;20196;-78
2021/12/13 09:46:27;;;;;;;8.32;5.90;;;;;16.20;102485.00;;;;5028094;28;20200;-78
2021/12/13 09:48:58;;;;;;;8.18;5.57;;;;;16.20;102484.00;;;;5027721;28;20204;-79
2021/12/13 09:51:32;;;;;;;6.95;4.80;;;;;16.20;102486.00;;;;5025294;28;20201;-79
2021/12/13 09:54:03;;;;;;;8.15;5.47;;;;;16.30;102491.00;;;;5024516;28;21004;-78
2021/12/13 09:56:36;;;;;;;9.45;6.28;;;;;16.30;102490.00;;;;5026807;28;20232;-78
2021/12/13 09:59:15;;;;;;;8.43;5.50;;;;;16.30;102503.00;;;;5027777;28;20197;-78
2021/12/13 10:01:43;;;;;;;7.65;5.63;;;;;16.40;102500.00;;;;5021359;28;20192;-78
2021/12/13 10:04:16;;;;;;;7.28;5.18;;;;;16.40;102496.00;;;;5025641;28;20205;-77
2021/12/13 10:06:47;;;;;;;6.68;4.65;;;;;16.40;102507.00;;;;5024273;28;20204;-80
2021/12/13 10:09:21;;;;;;;9.07;5.25;;;;;16.40;102499.00;;;;5023063;28;20273;-81
2021/12/13 10:11:53;;;;;;;8.45;5.13;;;;;16.40;102497.00;;;;5016714;28;20200;-79
2021/12/13 10:14:25;;;;;;;9.63;5.82;;;;;16.50;102488.00;;;;5028655;28;20570;-77
2021/12/13 10:16:55;;;;;;;9.85;5.72;;;;;16.50;102486.00;;;;5025412;28;20200;-80
2021/12/13 10:19:29;;;;;;;9.45;5.40;;;;;16.50;102487.00;;;;5028413;28;20670;-78
2021/12/13 10:21:56;;;;;;;7.88;5.07;;;;;16.50;102483.00;;;;5028380;28;20204;-78
2021/12/13 10:24:27;;;;;;;7.10;5.18;;;;;16.50;102481.00;;;;5023066;28;20192;-78
2021/12/13 10:26:57;;;;;;;7.68;5.15;;;;;16.50;102480.00;;;;5028721;28;20555;-78
2021/12/13 10:29:26;;;;;;;6.85;4.78;;;;;16.50;102477.00;;;;5027904;28;20197;-77
2021/12/13 10:31:57;;;;;;;8.75;5.13;;;;;16.50;102482.00;;;;5028889;28;20219;-79
2021/12/13 10:34:29;;;;;;;7.78;5.05;;;;;16.50;102477.00;;;;5026678;28;20219;-78
2021/12/13 10:37:00;;;;;;;7.78;5.50;;;;;16.60;102484.00;;;;5028206;28;20215;-78
2021/12/13 10:39:31;;;;;;;6.80;4.15;;;;;16.60;102487.00;;;;5027748;28;20207;-78
2021/12/13 10:42:01;;;;;;;5.72;3.92;;;;;16.60;102482.00;;;;5027451;28;20204;-78
2021/12/13 10:44:30;;;;;;;7.47;5.30;;;;;16.60;102479.00;;;;5027914;28;20212;-77
2021/12/13 10:47:02;;;;;;;6.55;4.25;;;;;16.60;102485.00;;;;5028153;28;20208;-78
2021/12/13 10:49:34;;;;;;;7.15;4.63;;;;;16.60;102479.00;;;;5026679;28;20577;-79
2021/12/13 10:52:07;;;;;;;8.02;4.90;;;;;16.60;102486.00;;;;5023970;28;20203;-78
2021/12/13 10:54:37;;;;;;;6.55;4.28;;;;;16.60;102486.00;;;;5022154;28;20219;-79
2021/12/13 10:57:09;;;;;;;8.40;5.10;;;;;16.60;102495.00;;;;5027246;28;20228;-78
2021/12/13 10:59:37;;;;;;;5.78;4.47;;;;;16.70;102485.00;;;;5027995;28;20200;-79
2021/12/13 11:02:08;;;;;;;6.97;4.43;;;;;16.70;102483.00;;;;5027956;28;20207;-79
2021/12/13 11:04:40;;;;;;;6.88;4.80;;;;;16.70;102489.00;;;;5027348;28;20204;-78
2021/12/13 11:07:09;;;;;;;7.93;5.07;;;;;16.70;102486.00;;;;5025674;28;20196;-79
2021/12/13 11:09:39;;;;;;;7.25;4.60;;;;;16.70;102484.00;;;;5027127;28;20192;-79
2021/12/13 11:12:10;;;;;;;10.75;3.85;;;;;16.70;102483.00;;;;5025654;28;20230;-78
2021/12/13 11:14:41;;;;;;;4.82;3.78;;;;;16.70;102485.00;;;;5027058;28;20212;-78
2021/12/13 11:17:18;;;;;;;5.97;3.92;;;;;16.70;102477.00;;;;5019363;28;20200;-78
2021/12/13 11:19:52;;;;;;;8.95;4.25;;;;;16.70;102483.00;;;;5026986;28;20200;-77
2021/12/13 11:22:24;;;;;;;6.03;4.13;;;;;16.70;102483.00;;;;5027382;28;20207;-78
2021/12/13 11:24:54;;;;;;;6.03;3.78;;;;;16.70;102477.00;;;;5025686;28;20200;-78
2021/12/13 11:27:26;;;;;;;6.35;4.00;;;;;16.70;102480.00;;;;5026529;28;20211;-77
2021/12/13 11:29:55;;;;;;;4.63;3.55;;;;;16.80;102480.00;;;;5026047;28;20204;-78
2021/12/13 11:32:58;;;;;;;6.65;4.22;;;;;16.70;102480.00;;;;5027542;28;20200;-77
2021/12/13 11:35:57;;;;;;;5.55;3.92;;;;;16.70;102474.00;;;;5027130;28;20226;-78
2021/12/13 11:38:55;;;;;;;5.53;3.28;;;;;16.80;102471.00;;;;5019206;28;20243;-78
2021/12/13 11:42:07;;;;;;;5.97;3.75;;;;;16.80;102472.00;;;;5024099;28;20662;-77
2021/12/13 11:45:00;;;;;;;5.40;3.85;;;;;16.80;102467.00;;;;4993696;28;20299;-77
2021/12/13 11:47:51;;;;;;;5.13;3.53;;;;;16.80;102465.00;;;;5026967;28;20611;-77
2021/12/13 11:51:05;;;;;;;5.22;3.42;;;;;16.80;102463.00;;;;5027126;28;20193;-78
2021/12/13 11:54:07;;;;;;;5.00;3.35;;;;;16.80;102463.00;;;;5022606;28;20189;-77
2021/12/13 11:57:05;;;;;;;5.47;3.10;;;;;16.80;102469.00;;;;5022560;28;20247;-77
2021/12/13 11:59:57;;;;;;;6.95;3.72;;;;;16.80;102464.00;;;;5013168;28;20205;-76
2021/12/13 12:02:35;;;;;;;5.20;3.58;;;;;16.80;102466.00;;;;5023704;28;20196;-77
2021/12/13 12:05:53;;;;;;;5.93;4.28;;;;;16.80;102458.00;;;;5025269;28;20208;-77
2021/12/13 12:08:53;;;;;;;5.20;3.35;;;;;16.80;102468.00;;;;5020923;28;20192;-77
2021/12/13 12:11:36;;;;;;;4.30;2.88;;;;;16.80;102464.00;;;;5017892;28;20192;-76
2021/12/13 12:14:06;;;;;;;5.75;3.30;;;;;16.90;102465.00;;;;5024202;28;20188;-77
2021/12/13 12:16:38;;;;;;;4.80;3.15;;;;;16.90;102465.00;;;;5027115;28;20632;-76
2021/12/13 12:19:09;;;;;;;4.35;3.05;;;;;16.90;102462.00;;;;5028589;28;20199;-77
2021/12/13 12:21:47;;;;;;;5.22;3.28;;;;;16.90;102468.00;;;;5023645;28;20197;-77
2021/12/13 12:24:18;;;;;;;4.93;3.47;;;;;17.00;102473.00;;;;5028127;28;20211;-77
2021/12/13 12:26:50;;;;;;;4.28;3.05;;;;;17.00;102467.00;;;;5030864;28;20193;-77
2021/12/13 12:29:22;;;;;;;6.28;3.55;;;;;16.90;102460.00;;;;5030232;28;20204;-77
2021/12/13 12:31:56;;;;;;;5.68;3.15;;;;;16.90;102464.00;;;;5024510;28;20204;-77
2021/12/13 12:34:23;;;;;;;5.20;3.67;;;;;17.00;102464.00;;;;5028231;28;20202;-78
2021/12/13 12:37:31;;;;;;;5.90;3.22;;;;;16.90;102454.00;;;;5030616;28;20224;-77
2021/12/13 12:40:19;;;;;;;4.75;3.15;;;;;16.90;102453.00;;;;5017718;28;20295;-77
2021/12/13 12:42:48;;;;;;;4.50;3.60;;;;;17.00;102461.00;;;;5028874;28;20205;-77
2021/12/13 12:45:26;;;;;;;6.28;3.55;;;;;16.90;102463.00;;;;5027058;28;20236;-77